createdAt,value
2022-12-31T00:01:11.776Z,73.28
2022-12-31T00:03:41.468Z,73.41
2022-12-31T00:06:15.375Z,73.70
2022-12-31T00:08:45.967Z,73.62
2022-12-31T00:11:15.953Z,73.89
2022-12-31T00:13:47.085Z,73.61
2022-12-31T00:16:17.506Z,73.62
2022-12-31T00:18:47.806Z,73.69
2022-12-31T00:21:16.929Z,73.88
2022-12-31T00:23:48.187Z,73.86
2022-12-31T00:26:18.459Z,73.78
2022-12-31T00:28:47.624Z,73.77
2022-12-31T00:31:17.996Z,73.59
2022-12-31T00:33:47.585Z,74.00
2022-12-31T00:36:18.573Z,73.93
2022-12-31T00:38:49.791Z,74.20
2022-12-31T00:41:19.845Z,73.80
2022-12-31T00:43:48.966Z,73.99
2022-12-31T00:46:19.104Z,73.77
2022-12-31T00:48:47.700Z,73.76
2022-12-31T00:51:19.624Z,73.74
2022-12-31T00:53:49.952Z,73.86
2022-12-31T00:56:21.680Z,73.97
2022-12-31T00:58:50.973Z,73.78
2022-12-31T01:01:21.760Z,73.83
2022-12-31T01:03:51.643Z,73.37
2022-12-31T01:06:20.601Z,73.35
2022-12-31T01:08:51.410Z,73.10
2022-12-31T01:11:22.940Z,73.02
2022-12-31T01:13:54.082Z,72.82
2022-12-31T01:16:25.391Z,72.80
2022-12-31T01:18:54.885Z,72.30
2022-12-31T01:21:23.668Z,72.06
2022-12-31T01:23:53.486Z,72.05
2022-12-31T01:26:23.061Z,71.74
2022-12-31T01:28:51.983Z,71.45
2022-12-31T01:31:24.676Z,71.33
2022-12-31T01:33:54.140Z,71.00
2022-12-31T01:36:26.308Z,70.76
2022-12-31T01:38:59.369Z,70.99
2022-12-31T01:41:31.191Z,70.55
2022-12-31T01:44:02.324Z,70.46
2022-12-31T01:46:37.043Z,70.33
2022-12-31T01:49:22.611Z,70.22
2022-12-31T01:51:54.662Z,70.02
2022-12-31T01:54:28.687Z,70.14
2022-12-31T01:56:58.020Z,69.65
2022-12-31T01:59:30.884Z,69.58
2022-12-31T02:02:00.791Z,69.49
2022-12-31T02:04:30.279Z,69.34
2022-12-31T02:07:02.655Z,69.51
2022-12-31T02:09:34.041Z,69.20
2022-12-31T02:12:02.471Z,68.98
2022-12-31T02:14:35.284Z,68.93
2022-12-31T02:17:08.708Z,69.08
2022-12-31T02:19:57.144Z,69.00
2022-12-31T02:22:40.883Z,68.79
2022-12-31T02:25:37.412Z,68.35
2022-12-31T02:28:21.730Z,68.41
2022-12-31T02:30:57.103Z,68.23
2022-12-31T02:33:33.754Z,68.31
2022-12-31T02:36:06.527Z,68.35
2022-12-31T02:38:40.582Z,68.25
2022-12-31T02:41:33.664Z,67.77
2022-12-31T02:44:02.687Z,67.78
2022-12-31T02:46:39.212Z,67.68
2022-12-31T02:49:14.019Z,67.74
2022-12-31T02:51:47.637Z,67.44
2022-12-31T02:54:24.990Z,67.54
2022-12-31T02:57:04.779Z,67.44
2022-12-31T02:59:56.978Z,67.31
2022-12-31T03:02:29.724Z,67.10
2022-12-31T03:05:02.592Z,66.94
2022-12-31T03:07:34.067Z,66.95
2022-12-31T03:10:03.078Z,67.01
2022-12-31T03:12:48.203Z,66.79
2022-12-31T03:15:23.124Z,66.76
2022-12-31T03:17:55.879Z,66.80
2022-12-31T03:20:44.499Z,66.66
2022-12-31T03:23:16.582Z,66.26
2022-12-31T03:25:44.322Z,66.25
2022-12-31T03:28:16.499Z,66.46
2022-12-31T03:30:47.677Z,66.25
2022-12-31T03:33:17.755Z,66.33
2022-12-31T03:35:48.792Z,66.06
2022-12-31T03:38:17.808Z,66.02
2022-12-31T03:40:49.213Z,65.86
2022-12-31T03:43:20.180Z,65.79
2022-12-31T03:45:51.904Z,65.92
2022-12-31T03:48:22.963Z,66.10
2022-12-31T03:50:52.443Z,65.57
2022-12-31T03:53:21.447Z,65.79
2022-12-31T03:55:52.182Z,65.67
2022-12-31T03:58:21.109Z,65.43
2022-12-31T04:00:49.734Z,65.72
2022-12-31T04:03:19.403Z,65.46
2022-12-31T04:05:55.525Z,65.41
2022-12-31T04:08:24.634Z,65.35
2022-12-31T04:10:53.495Z,65.21
2022-12-31T04:13:21.877Z,64.97
2022-12-31T04:15:51.579Z,65.16
2022-12-31T04:18:19.993Z,64.96
2022-12-31T04:20:49.369Z,64.89
2022-12-31T04:23:19.212Z,65.17
2022-12-31T04:25:48.130Z,64.87
2022-12-31T04:28:17.109Z,64.84
2022-12-31T04:30:45.518Z,64.88
2022-12-31T04:33:14.931Z,64.79
2022-12-31T04:35:43.251Z,64.60
2022-12-31T04:38:12.277Z,64.66
2022-12-31T04:41:02.076Z,64.47
2022-12-31T04:43:31.300Z,64.57
2022-12-31T04:45:59.671Z,64.72
2022-12-31T04:48:28.896Z,64.24
2022-12-31T04:50:57.699Z,64.50
2022-12-31T04:53:26.433Z,64.42
2022-12-31T04:55:57.229Z,64.18
2022-12-31T04:58:25.645Z,64.02
2022-12-31T05:00:55.505Z,64.12
2022-12-31T05:03:26.286Z,63.94
2022-12-31T05:05:55.049Z,63.88
2022-12-31T05:08:23.886Z,63.77
2022-12-31T05:10:52.308Z,63.75
2022-12-31T05:13:23.986Z,63.84
2022-12-31T05:15:55.377Z,63.94
2022-12-31T05:18:24.733Z,63.98
2022-12-31T05:20:53.253Z,64.03
2022-12-31T05:23:22.052Z,63.92
2022-12-31T05:25:51.039Z,63.97
2022-12-31T05:28:20.727Z,63.83
2022-12-31T05:30:52.282Z,63.55
2022-12-31T05:33:22.591Z,63.51
2022-12-31T05:35:52.075Z,63.58
2022-12-31T05:38:20.451Z,63.13
2022-12-31T05:40:49.398Z,63.33
2022-12-31T05:43:18.272Z,63.10
2022-12-31T05:45:46.993Z,63.01
2022-12-31T05:48:17.593Z,62.79
2022-12-31T05:50:45.967Z,62.99
2022-12-31T05:53:15.470Z,62.86
2022-12-31T05:55:43.813Z,62.69
2022-12-31T05:58:12.673Z,62.59
2022-12-31T06:00:42.643Z,62.60
2022-12-31T06:03:11.889Z,62.51
2022-12-31T06:05:42.963Z,62.62
2022-12-31T06:08:13.091Z,62.36
2022-12-31T06:10:41.822Z,62.37
2022-12-31T06:13:11.378Z,62.22
2022-12-31T06:15:41.322Z,62.35
2022-12-31T06:18:10.230Z,62.47
2022-12-31T06:20:39.445Z,62.15
2022-12-31T06:23:09.893Z,62.16
2022-12-31T06:25:38.729Z,62.19
2022-12-31T06:28:08.022Z,62.04
2022-12-31T06:30:36.578Z,62.13
2022-12-31T06:33:05.284Z,61.85
2022-12-31T06:35:34.401Z,61.96
2022-12-31T06:38:03.125Z,61.96
2022-12-31T06:40:33.818Z,61.93
2022-12-31T06:43:02.437Z,61.79
2022-12-31T06:45:31.090Z,61.74
2022-12-31T06:48:00.389Z,61.64
2022-12-31T06:50:28.759Z,61.76
2022-12-31T06:52:57.981Z,61.89
2022-12-31T06:55:27.614Z,61.54
2022-12-31T06:57:58.722Z,61.47
2022-12-31T07:00:27.733Z,61.27
2022-12-31T07:03:16.783Z,61.36
2022-12-31T07:05:48.210Z,61.32
2022-12-31T07:08:29.667Z,61.24
2022-12-31T07:11:06.404Z,61.15
2022-12-31T07:14:13.018Z,61.02
2022-12-31T07:16:51.903Z,60.72
2022-12-31T07:19:30.533Z,60.71
2022-12-31T07:22:00.696Z,60.72
2022-12-31T07:24:29.830Z,60.71
2022-12-31T07:27:15.708Z,60.54
2022-12-31T07:30:05.988Z,60.57
2022-12-31T07:32:59.751Z,60.33
2022-12-31T07:35:41.348Z,60.35
2022-12-31T07:38:20.787Z,60.37
2022-12-31T07:41:07.286Z,60.35
2022-12-31T07:43:52.871Z,60.21
2022-12-31T07:46:35.128Z,60.08
2022-12-31T07:49:07.810Z,60.23
2022-12-31T07:51:41.365Z,59.94
2022-12-31T07:54:14.372Z,59.90
2022-12-31T07:56:48.871Z,59.92
2022-12-31T07:59:35.756Z,59.90
2022-12-31T08:02:45.845Z,59.60
2022-12-31T08:05:29.955Z,59.72
2022-12-31T08:08:24.783Z,59.60
2022-12-31T08:11:03.828Z,59.49
2022-12-31T08:13:51.211Z,59.42
2022-12-31T08:16:27.904Z,59.37
2022-12-31T08:19:01.077Z,59.29
2022-12-31T08:21:44.361Z,59.33
2022-12-31T08:24:24.035Z,59.45
2022-12-31T08:26:59.420Z,59.37
2022-12-31T08:29:37.406Z,59.53
2022-12-31T08:32:14.270Z,59.67
2022-12-31T08:34:54.139Z,59.53
2022-12-31T08:37:33.290Z,59.63
2022-12-31T08:40:14.892Z,59.65
2022-12-31T08:42:57.736Z,59.50
2022-12-31T08:45:35.905Z,59.49
2022-12-31T08:48:13.922Z,59.54
2022-12-31T08:50:47.659Z,59.39
2022-12-31T08:53:17.681Z,59.37
2022-12-31T08:55:52.431Z,59.38
2022-12-31T08:58:42.692Z,59.14
2022-12-31T09:01:15.595Z,58.54
2022-12-31T09:07:38.736Z,57.49
2022-12-31T09:10:35.106Z,57.27
2022-12-31T09:13:24.499Z,56.94
2022-12-31T09:16:22.042Z,57.00
2022-12-31T09:22:02.308Z,57.39
2022-12-31T09:29:09.800Z,57.78
2022-12-31T09:35:52.827Z,57.01
2022-12-31T09:38:31.337Z,57.17
2022-12-31T10:12:04.632Z,56.87
2022-12-31T10:18:19.850Z,56.03
2022-12-31T10:21:13.790Z,55.97
2022-12-31T10:23:59.810Z,55.86
2022-12-31T10:26:49.850Z,56.19
2022-12-31T10:29:33.179Z,56.07
2022-12-31T10:32:17.715Z,56.10
2022-12-31T10:34:56.381Z,56.15
2022-12-31T10:37:30.994Z,56.30
2022-12-31T11:28:31.987Z,57.36
2022-12-31T11:31:19.355Z,57.82
2022-12-31T11:34:02.634Z,57.88
2022-12-31T11:36:43.078Z,58.13
2022-12-31T11:39:31.496Z,58.17
2022-12-31T11:42:06.166Z,58.15
2022-12-31T11:44:47.596Z,58.26
2022-12-31T11:47:41.211Z,58.14
2022-12-31T11:50:34.078Z,58.20
2022-12-31T11:53:34.203Z,58.14
2022-12-31T11:56:16.448Z,57.98
2022-12-31T11:58:49.630Z,58.11
2022-12-31T12:01:26.122Z,57.97
2022-12-31T12:03:55.324Z,58.04
2022-12-31T12:06:28.965Z,57.76
2022-12-31T12:13:36.494Z,57.38
2022-12-31T12:16:09.191Z,56.83
2022-12-31T12:18:45.192Z,56.29
2022-12-31T12:21:17.440Z,56.12
2022-12-31T12:23:57.126Z,55.69
2022-12-31T12:26:29.252Z,55.39
2022-12-31T12:29:01.747Z,54.95
2022-12-31T12:31:30.585Z,54.86
2022-12-31T12:34:01.164Z,54.67
2022-12-31T12:36:29.955Z,54.75
2022-12-31T12:39:04.683Z,54.33
2022-12-31T12:41:33.387Z,54.36
2022-12-31T12:44:09.781Z,53.76
2022-12-31T12:46:48.187Z,53.70
2022-12-31T12:49:24.643Z,53.22
2022-12-31T12:52:10.632Z,52.92
2022-12-31T12:54:55.309Z,52.66
2022-12-31T12:57:34.840Z,52.52
2022-12-31T13:00:10.752Z,51.97
2022-12-31T13:03:14.633Z,51.67
2022-12-31T13:05:57.506Z,52.01
2022-12-31T13:08:42.332Z,51.98
2022-12-31T13:11:27.764Z,52.16
2022-12-31T13:14:05.108Z,51.92
2022-12-31T13:16:41.493Z,52.26
2022-12-31T13:19:20.326Z,52.21
2022-12-31T13:21:58.971Z,52.00
2022-12-31T13:24:43.612Z,52.18
2022-12-31T13:27:19.815Z,52.31
2022-12-31T13:29:50.509Z,52.29
2022-12-31T13:32:24.740Z,52.41
2022-12-31T13:34:58.994Z,52.32
2022-12-31T13:37:35.392Z,51.95
2022-12-31T13:40:14.325Z,52.24
2022-12-31T13:42:49.555Z,51.80
2022-12-31T13:45:26.461Z,51.95
2022-12-31T13:48:00.100Z,52.00
2022-12-31T13:50:35.853Z,51.79
2022-12-31T13:53:15.189Z,51.52
2022-12-31T13:55:55.070Z,51.37
2022-12-31T13:58:34.221Z,51.57
2022-12-31T14:01:13.381Z,51.56
2022-12-31T14:03:50.482Z,51.84
2022-12-31T14:06:30.549Z,51.51
2022-12-31T14:09:00.984Z,51.79
2022-12-31T14:11:48.228Z,52.10
2022-12-31T14:14:31.868Z,51.87
2022-12-31T14:17:07.943Z,51.96
2022-12-31T14:19:49.219Z,52.03
2022-12-31T14:22:24.442Z,52.15
2022-12-31T14:24:57.125Z,52.57
2022-12-31T14:27:31.493Z,52.77
2022-12-31T14:30:03.060Z,52.95
2022-12-31T14:32:52.340Z,53.16
2022-12-31T14:35:52.037Z,53.48
2022-12-31T14:38:31.933Z,53.45
2022-12-31T14:41:13.695Z,53.61
2022-12-31T14:43:52.793Z,53.80
2022-12-31T14:46:30.887Z,53.90
2022-12-31T14:49:12.791Z,54.00
2022-12-31T14:51:41.524Z,54.34
2022-12-31T14:54:29.111Z,54.41
2022-12-31T14:57:15.717Z,54.82
2022-12-31T14:59:56.303Z,54.87
2022-12-31T15:02:39.798Z,55.04
2022-12-31T15:05:20.439Z,55.34
2022-12-31T15:08:04.938Z,55.50
2022-12-31T15:10:43.876Z,55.64
2022-12-31T15:13:29.427Z,55.75
2022-12-31T15:16:15.062Z,55.75
2022-12-31T15:19:17.565Z,55.95
2022-12-31T15:21:57.421Z,56.14
2022-12-31T15:24:30.793Z,56.34
2022-12-31T15:27:06.906Z,56.50
2022-12-31T15:29:46.019Z,56.67
2022-12-31T15:43:18.498Z,57.40
2022-12-31T15:45:49.535Z,57.58
2022-12-31T15:48:28.524Z,57.46
2022-12-31T15:51:00.831Z,57.55
2022-12-31T15:53:33.964Z,57.70
2022-12-31T15:56:03.883Z,57.72
2022-12-31T16:02:00.339Z,58.20
2022-12-31T16:04:33.467Z,58.37
2022-12-31T16:19:35.262Z,59.48
